sensor_id;sensor_type;location;lat;lon;timestamp;pressure;altitude;pressure_sealevel;temperature;humidity
64080;BME280;51042;49.696;10.808;2022-12-10T00:01:24;97321.19;;;-5.39;100.00
64080;BME280;51042;49.696;10.808;2022-12-10T00:03:50;97329.91;;;-5.42;100.00
64080;BME280;51042;49.696;10.808;2022-12-10T00:06:19;97324.56;;;-5.42;100.00
64080;BME280;51042;49.696;10.808;2022-12-10T00:08:45;97331.84;;;-5.43;100.00
64080;BME280;51042;49.696;10.808;2022-12-10T00:11:10;97338.31;;;-5.44;100.00
64080;BME280;51042;49.696;10.808;2022-12-10T00:13:36;97337.06;;;-5.50;100.00
64080;BME280;51042;49.696;10.808;2022-12-10T00:16:02;97334.31;;;-5.53;100.00
64080;BME280;51042;49.696;10.808;2022-12-10T00:18:28;97331.56;;;-5.57;100.00
64080;BME280;51042;49.696;10.808;2022-12-10T00:20:53;97331.94;;;-5.58;100.00
64080;BME280;51042;49.696;10.808;2022-12-10T00:23:18;97336.97;;;-5.53;100.00
64080;BME280;51042;49.696;10.808;2022-12-10T00:25:43;97330.84;;;-5.54;100.00
64080;BME280;51042;49.696;10.808;2022-12-10T00:28:08;97326.94;;;-5.60;100.00
64080;BME280;51042;49.696;10.808;2022-12-10T00:30:33;97321.53;;;-5.63;100.00
64080;BME280;51042;49.696;10.808;2022-12-10T00:32:59;97324.22;;;-5.63;100.00
64080;BME280;51042;49.696;10.808;2022-12-10T00:35:24;97320.34;;;-5.66;100.00
64080;BME280;51042;49.696;10.808;2022-12-10T00:37:49;97319.28;;;-5.61;100.00
64080;BME280;51042;49.696;10.808;2022-12-10T00:40:14;97314.72;;;-5.61;100.00
64080;BME280;51042;49.696;10.808;2022-12-10T00:42:39;97319.97;;;-5.64;100.00
64080;BME280;51042;49.696;10.808;2022-12-10T00:45:05;97323.78;;;-5.65;100.00
64080;BME280;51042;49.696;10.808;2022-12-10T00:47:30;97320.34;;;-5.66;100.00
64080;BME280;51042;49.696;10.808;2022-12-10T00:49:55;97318.44;;;-5.65;100.00
64080;BME280;51042;49.696;10.808;2022-12-10T00:52:20;97327.19;;;-5.68;100.00
64080;BME280;51042;49.696;10.808;2022-12-10T00:54:45;97329.41;;;-5.70;100.00
64080;BME280;51042;49.696;10.808;2022-12-10T00:57:11;97335.19;;;-5.68;100.00
64080;BME280;51042;49.696;10.808;2022-12-10T00:59:36;97339.31;;;-5.71;100.00
64080;BME280;51042;49.696;10.808;2022-12-10T01:02:01;97332.38;;;-5.76;100.00
64080;BME280;51042;49.696;10.808;2022-12-10T01:04:26;97344.97;;;-5.76;100.00
64080;BME280;51042;49.696;10.808;2022-12-10T01:06:52;97352.56;;;-5.78;100.00
64080;BME280;51042;49.696;10.808;2022-12-10T01:09:21;97352.19;;;-5.77;100.00
64080;BME280;51042;49.696;10.808;2022-12-10T01:11:47;97354.97;;;-5.73;100.00
64080;BME280;51042;49.696;10.808;2022-12-10T01:14:14;97356.06;;;-5.74;100.00
64080;BME280;51042;49.696;10.808;2022-12-10T01:16:40;97351.44;;;-5.77;100.00
64080;BME280;51042;49.696;10.808;2022-12-10T01:19:05;97348.66;;;-5.84;100.00
64080;BME280;51042;49.696;10.808;2022-12-10T01:21:31;97346.28;;;-5.89;100.00
64080;BME280;51042;49.696;10.808;2022-12-10T01:23:56;97345.09;;;-5.92;100.00
64080;BME280;51042;49.696;10.808;2022-12-10T01:26:23;97343.53;;;-5.93;100.00
64080;BME280;51042;49.696;10.808;2022-12-10T01:28:49;97343.53;;;-5.93;100.00
64080;BME280;51042;49.696;10.808;2022-12-10T01:31:18;97343.50;;;-5.96;100.00
64080;BME280;51042;49.696;10.808;2022-12-10T01:33:44;97358.31;;;-5.99;100.00
64080;BME280;51042;49.696;10.808;2022-12-10T01:36:21;97356.34;;;-6.02;100.00
64080;BME280;51042;49.696;10.808;2022-12-10T01:38:46;97363.94;;;-6.04;100.00
64080;BME280;51042;49.696;10.808;2022-12-10T01:41:13;97363.94;;;-6.04;100.00
64080;BME280;51042;49.696;10.808;2022-12-10T01:46:24;97369.06;;;-6.14;100.00
64080;BME280;51042;49.696;10.808;2022-12-10T01:48:49;97367.84;;;-6.17;100.00
64080;BME280;51042;49.696;10.808;2022-12-10T01:51:15;97368.97;;;-6.18;100.00
64080;BME280;51042;49.696;10.808;2022-12-10T01:53:41;97376.97;;;-6.18;100.00
64080;BME280;51042;49.696;10.808;2022-12-10T01:56:08;97379.25;;;-6.20;100.00
64080;BME280;51042;49.696;10.808;2022-12-10T01:58:34;97374.16;;;-6.25;100.00
64080;BME280;51042;49.696;10.808;2022-12-10T02:04:14;97375.81;;;-6.21;100.00
64080;BME280;51042;49.696;10.808;2022-12-10T02:11:40;97372.22;;;-6.28;100.00
64080;BME280;51042;49.696;10.808;2022-12-10T02:16:46;97378.66;;;-6.29;100.00
64080;BME280;51042;49.696;10.808;2022-12-10T02:21:56;97376.44;;;-6.27;100.00
64080;BME280;51042;49.696;10.808;2022-12-10T02:24:27;97380.50;;;-6.33;100.00
64080;BME280;51042;49.696;10.808;2022-12-10T02:27:15;97387.28;;;-6.36;100.00
64080;BME280;51042;49.696;10.808;2022-12-10T02:29:39;97385.06;;;-6.34;100.00
64080;BME280;51042;49.696;10.808;2022-12-10T02:32:09;97377.03;;;-6.34;100.00
64080;BME280;51042;49.696;10.808;2022-12-10T02:34:37;97380.50;;;-6.33;100.00
64080;BME280;51042;49.696;10.808;2022-12-10T02:37:07;97376.28;;;-6.34;100.00
64080;BME280;51042;49.696;10.808;2022-12-10T02:39:36;97374.72;;;-6.35;100.00
64080;BME280;51042;49.696;10.808;2022-12-10T02:42:03;97372.81;;;-6.35;100.00
64080;BME280;51042;49.696;10.808;2022-12-10T02:44:30;97370.50;;;-6.36;100.00
64080;BME280;51042;49.696;10.808;2022-12-10T02:46:56;97372.41;;;-6.37;100.00
64080;BME280;51042;49.696;10.808;2022-12-10T02:49:23;97374.72;;;-6.35;100.00
64080;BME280;51042;49.696;10.808;2022-12-10T02:51:48;97371.63;;;-6.37;100.00
64080;BME280;51042;49.696;10.808;2022-12-10T02:56:58;97368.09;;;-6.41;100.00
64080;BME280;51042;49.696;10.808;2022-12-10T03:07:02;97367.88;;;-6.52;100.00
64080;BME280;51042;49.696;10.808;2022-12-10T03:09:32;97370.75;;;-6.61;100.00
64080;BME280;51042;49.696;10.808;2022-12-10T03:12:14;97366.38;;;-6.69;100.00
64080;BME280;51042;49.696;10.808;2022-12-10T03:14:41;97362.00;;;-6.77;100.00
64080;BME280;51042;49.696;10.808;2022-12-10T03:17:07;97367.00;;;-6.75;100.00
64080;BME280;51042;49.696;10.808;2022-12-10T03:19:37;97375.16;;;-6.68;100.00
64080;BME280;51042;49.696;10.808;2022-12-10T03:22:04;97370.94;;;-6.69;100.00
64080;BME280;51042;49.696;10.808;2022-12-10T03:24:30;97375.50;;;-6.70;100.00
64080;BME280;51042;49.696;10.808;2022-12-10T03:26:56;97370.94;;;-6.69;100.00
64080;BME280;51042;49.696;10.808;2022-12-10T03:29:23;97374.38;;;-6.69;100.00
64080;BME280;51042;49.696;10.808;2022-12-10T03:31:50;97367.56;;;-6.66;100.00
64080;BME280;51042;49.696;10.808;2022-12-10T03:34:17;97371.09;;;-6.62;100.00
64080;BME280;51042;49.696;10.808;2022-12-10T03:36:42;97365.16;;;-6.55;100.00
64080;BME280;51042;49.696;10.808;2022-12-10T03:39:09;97359.44;;;-6.54;100.00
64080;BME280;51042;49.696;10.808;2022-12-10T03:41:34;97351.16;;;-6.49;100.00
64080;BME280;51042;49.696;10.808;2022-12-10T03:43:59;97351.53;;;-6.50;100.00
64080;BME280;51042;49.696;10.808;2022-12-10T03:46:26;97354.88;;;-6.53;100.00
64080;BME280;51042;49.696;10.808;2022-12-10T03:48:52;97349.91;;;-6.55;100.00
64080;BME280;51042;49.696;10.808;2022-12-10T03:51:17;97348.38;;;-6.56;100.00
64080;BME280;51042;49.696;10.808;2022-12-10T03:53:42;97346.81;;;-6.57;100.00
64080;BME280;51042;49.696;10.808;2022-12-10T03:56:08;97354.13;;;-6.54;100.00
64080;BME280;51042;49.696;10.808;2022-12-10T03:58:33;97347.75;;;-6.49;100.00
64080;BME280;51042;49.696;10.808;2022-12-10T04:00:58;97349.28;;;-6.48;100.00
64080;BME280;51042;49.696;10.808;2022-12-10T04:03:24;97354.97;;;-6.50;100.00
64080;BME280;51042;49.696;10.808;2022-12-10T04:05:49;97346.47;;;-6.55;100.00
64080;BME280;51042;49.696;10.808;2022-12-10T04:08:14;97359.66;;;-6.63;100.00
64080;BME280;51042;49.696;10.808;2022-12-10T04:10:40;97359.84;;;-6.71;100.00
64080;BME280;51042;49.696;10.808;2022-12-10T04:13:05;97355.22;;;-6.74;100.00
64080;BME280;51042;49.696;10.808;2022-12-10T04:15:48;97355.72;;;-6.69;100.00
64080;BME280;51042;49.696;10.808;2022-12-10T04:18:32;97350.34;;;-6.53;100.00
64080;BME280;51042;49.696;10.808;2022-12-10T04:20:58;97349.38;;;-6.45;100.00
64080;BME280;51042;49.696;10.808;2022-12-10T04:23:42;97349.25;;;-6.33;100.00
64080;BME280;51042;49.696;10.808;2022-12-10T04:26:26;97342.84;;;-6.28;100.00
64080;BME280;51042;49.696;10.808;2022-12-10T04:29:10;97345.50;;;-6.28;100.00
64080;BME280;51042;49.696;10.808;2022-12-10T04:31:35;97347.91;;;-6.23;100.00
64080;BME280;51042;49.696;10.808;2022-12-10T04:34:00;97356.34;;;-6.21;100.00
64080;BME280;51042;49.696;10.808;2022-12-10T04:36:25;97361.41;;;-6.16;100.00
64080;BME280;51042;49.696;10.808;2022-12-10T04:38:50;97367.56;;;-6.12;100.00
64080;BME280;51042;49.696;10.808;2022-12-10T04:41:16;97366.44;;;-6.11;100.00
64080;BME280;51042;49.696;10.808;2022-12-10T04:43:41;97365.38;;;-6.06;100.00
64080;BME280;51042;49.696;10.808;2022-12-10T04:46:07;97365.53;;;-5.99;100.00
64080;BME280;51042;49.696;10.808;2022-12-10T04:48:32;97359.13;;;-5.95;100.00
64080;BME280;51042;49.696;10.808;2022-12-10T04:50:57;97350.84;;;-5.90;100.00
64080;BME280;51042;49.696;10.808;2022-12-10T04:53:23;97353.28;;;-5.81;100.00
64080;BME280;51042;49.696;10.808;2022-12-10T04:55:48;97356.56;;;-5.68;100.00
64080;BME280;51042;49.696;10.808;2022-12-10T04:58:13;97352.47;;;-5.62;100.00
64080;BME280;51042;49.696;10.808;2022-12-10T05:00:38;97349.56;;;-5.54;100.00
64080;BME280;51042;49.696;10.808;2022-12-10T05:03:04;97350.81;;;-5.48;100.00
64080;BME280;51042;49.696;10.808;2022-12-10T05:05:29;97353.22;;;-5.43;100.00
64080;BME280;51042;49.696;10.808;2022-12-10T05:07:54;97353.63;;;-5.41;100.00
64080;BME280;51042;49.696;10.808;2022-12-10T05:10:19;97350.94;;;-5.41;100.00
64080;BME280;51042;49.696;10.808;2022-12-10T05:12:44;97350.59;;;-5.39;100.00
64080;BME280;51042;49.696;10.808;2022-12-10T05:15:10;97356.72;;;-5.39;100.00
64080;BME280;51042;49.696;10.808;2022-12-10T05:17:35;97355.50;;;-5.41;100.00
64080;BME280;51042;49.696;10.808;2022-12-10T05:20:00;97350.47;;;-5.46;100.00
64080;BME280;51042;49.696;10.808;2022-12-10T05:22:25;97362.66;;;-5.49;100.00
64080;BME280;51042;49.696;10.808;2022-12-10T05:25:09;97361.22;;;-5.43;100.00
64080;BME280;51042;49.696;10.808;2022-12-10T05:27:34;97364.31;;;-5.41;100.00
64080;BME280;51042;49.696;10.808;2022-12-10T05:29:59;97360.84;;;-5.41;100.00
64080;BME280;51042;49.696;10.808;2022-12-10T05:32:24;97363.94;;;-5.39;100.00
64080;BME280;51042;49.696;10.808;2022-12-10T05:34:49;97369.09;;;-5.30;100.00
64080;BME280;51042;49.696;10.808;2022-12-10T05:37:15;97366.41;;;-5.30;100.00
64080;BME280;51042;49.696;10.808;2022-12-10T05:39:40;97365.19;;;-5.33;100.00
64080;BME280;51042;49.696;10.808;2022-12-10T05:42:05;97364.38;;;-5.37;100.00
64080;BME280;51042;49.696;10.808;2022-12-10T05:44:30;97381.06;;;-5.44;100.00
64080;BME280;51042;49.696;10.808;2022-12-10T05:46:55;97385.19;;;-5.46;100.00
64080;BME280;51042;49.696;10.808;2022-12-10T05:49:20;97391.19;;;-5.53;100.00
64080;BME280;51042;49.696;10.808;2022-12-10T05:51:46;97398.50;;;-5.50;100.00
64080;BME280;51042;49.696;10.808;2022-12-10T05:54:11;97388.59;;;-5.49;100.00
64080;BME280;51042;49.696;10.808;2022-12-10T05:56:36;97389.38;;;-5.49;100.00
64080;BME280;51042;49.696;10.808;2022-12-10T05:59:02;97395.50;;;-5.48;100.00
64080;BME280;51042;49.696;10.808;2022-12-10T06:01:29;97397.88;;;-5.43;100.00
64080;BME280;51042;49.696;10.808;2022-12-10T06:03:56;97388.00;;;-5.39;100.00
64080;BME280;51042;49.696;10.808;2022-12-10T06:06:22;97392.22;;;-5.38;100.00
64080;BME280;51042;49.696;10.808;2022-12-10T06:08:47;97397.16;;;-5.40;100.00
64080;BME280;51042;49.696;10.808;2022-12-10T06:11:13;97390.19;;;-5.45;100.00
64080;BME280;51042;49.696;10.808;2022-12-10T06:13:38;97394.78;;;-5.45;100.00
64080;BME280;51042;49.696;10.808;2022-12-10T06:16:04;97399.28;;;-5.49;100.00
64080;BME280;51042;49.696;10.808;2022-12-10T06:18:29;97399.97;;;-5.52;100.00
64080;BME280;51042;49.696;10.808;2022-12-10T06:20:54;97410.31;;;-5.51;100.00
64080;BME280;51042;49.696;10.808;2022-12-10T06:23:19;97412.94;;;-5.54;100.00
64080;BME280;51042;49.696;10.808;2022-12-10T06:25:45;97418.28;;;-5.54;100.00
64080;BME280;51042;49.696;10.808;2022-12-10T06:28:10;97420.66;;;-5.49;100.00
64080;BME280;51042;49.696;10.808;2022-12-10T06:30:35;97412.00;;;-5.43;100.00
64080;BME280;51042;49.696;10.808;2022-12-10T06:33:00;97411.72;;;-5.38;100.00
64080;BME280;51042;49.696;10.808;2022-12-10T06:35:25;97414.09;;;-5.32;100.00
64080;BME280;51042;49.696;10.808;2022-12-10T06:37:51;97414.53;;;-5.30;100.00
64080;BME280;51042;49.696;10.808;2022-12-10T06:40:16;97411.34;;;-5.36;100.00
64080;BME280;51042;49.696;10.808;2022-12-10T06:42:42;97407.19;;;-5.33;100.00
64080;BME280;51042;49.696;10.808;2022-12-10T06:45:07;97420.63;;;-5.30;100.00
64080;BME280;51042;49.696;10.808;2022-12-10T06:47:32;97420.69;;;-5.26;100.00
64080;BME280;51042;49.696;10.808;2022-12-10T06:49:58;97424.97;;;-5.22;100.00
64080;BME280;51042;49.696;10.808;2022-12-10T06:52:23;97427.22;;;-5.24;100.00
64080;BME280;51042;49.696;10.808;2022-12-10T06:54:48;97439.06;;;-5.25;100.00
64080;BME280;51042;49.696;10.808;2022-12-10T06:57:13;97440.47;;;-5.31;100.00
64080;BME280;51042;49.696;10.808;2022-12-10T06:59:39;97435.19;;;-5.27;100.00
64080;BME280;51042;49.696;10.808;2022-12-10T07:02:04;97438.69;;;-5.23;100.00
64080;BME280;51042;49.696;10.808;2022-12-10T07:04:29;97435.66;;;-5.22;100.00
64080;BME280;51042;49.696;10.808;2022-12-10T07:06:54;97441.38;;;-5.23;100.00
64080;BME280;51042;49.696;10.808;2022-12-10T07:09:19;97437.91;;;-5.24;100.00
64080;BME280;51042;49.696;10.808;2022-12-10T07:11:45;97432.94;;;-5.25;100.00
64080;BME280;51042;49.696;10.808;2022-12-10T07:14:12;97442.22;;;-5.19;100.00
64080;BME280;51042;49.696;10.808;2022-12-10T07:16:39;97440.38;;;-5.15;100.00
64080;BME280;51042;49.696;10.808;2022-12-10T07:19:04;97447.03;;;-5.06;100.00
64080;BME280;51042;49.696;10.808;2022-12-10T07:21:30;97441.81;;;-4.99;100.00
64080;BME280;51042;49.696;10.808;2022-12-10T07:23:57;97446.50;;;-4.92;100.00
64080;BME280;51042;49.696;10.808;2022-12-10T07:26:23;97444.78;;;-4.81;100.00
64080;BME280;51042;49.696;10.808;2022-12-10T07:28:49;97448.31;;;-4.77;100.00
64080;BME280;51042;49.696;10.808;2022-12-10T07:31:14;97452.97;;;-4.70;100.00
64080;BME280;51042;49.696;10.808;2022-12-10T07:33:39;97446.59;;;-4.62;100.00
64080;BME280;51042;49.696;10.808;2022-12-10T07:36:09;97443.28;;;-4.56;100.00
64080;BME280;51042;49.696;10.808;2022-12-10T07:38:35;97452.53;;;-4.49;100.00
64080;BME280;51042;49.696;10.808;2022-12-10T07:41:07;97451.47;;;-4.45;100.00
64080;BME280;51042;49.696;10.808;2022-12-10T07:43:36;97444.31;;;-4.37;100.00
64080;BME280;51042;49.696;10.808;2022-12-10T07:46:03;97439.06;;;-4.30;100.00
64080;BME280;51042;49.696;10.808;2022-12-10T07:48:28;97446.13;;;-4.19;100.00
64080;BME280;51042;49.696;10.808;2022-12-10T07:50:57;97443.84;;;-4.17;100.00
64080;BME280;51042;49.696;10.808;2022-12-10T07:53:22;97451.19;;;-4.10;100.00
64080;BME280;51042;49.696;10.808;2022-12-10T07:55:48;97457.88;;;-3.97;100.00
64080;BME280;51042;49.696;10.808;2022-12-10T07:58:13;97465.75;;;-3.81;100.00
64080;BME280;51042;49.696;10.808;2022-12-10T08:00:38;97467.59;;;-3.55;100.00
64080;BME280;51042;49.696;10.808;2022-12-10T08:03:03;97467.97;;;-3.57;100.00
64080;BME280;51042;49.696;10.808;2022-12-10T08:05:28;97468.25;;;-3.65;100.00
64080;BME280;51042;49.696;10.808;2022-12-10T08:07:54;97474.78;;;-3.63;100.00
64080;BME280;51042;49.696;10.808;2022-12-10T08:10:19;97479.44;;;-3.60;100.00
64080;BME280;51042;49.696;10.808;2022-12-10T08:12:44;97469.75;;;-3.68;100.00
64080;BME280;51042;49.696;10.808;2022-12-10T08:15:09;97466.63;;;-3.74;100.00
64080;BME280;51042;49.696;10.808;2022-12-10T08:17:35;97467.44;;;-3.69;100.00
64080;BME280;51042;49.696;10.808;2022-12-10T08:20:00;97473.66;;;-3.62;100.00
64080;BME280;51042;49.696;10.808;2022-12-10T08:22:25;97475.19;;;-3.61;100.00
64080;BME280;51042;49.696;10.808;2022-12-10T08:24:50;97476.84;;;-3.53;100.00
64080;BME280;51042;49.696;10.808;2022-12-10T08:27:16;97476.53;;;-3.44;100.00
64080;BME280;51042;49.696;10.808;2022-12-10T08:29:41;97478.59;;;-3.34;100.00
64080;BME280;51042;49.696;10.808;2022-12-10T08:32:06;97474.72;;;-3.37;100.00
64080;BME280;51042;49.696;10.808;2022-12-10T08:34:31;97467.91;;;-3.31;100.00
64080;BME280;51042;49.696;10.808;2022-12-10T08:36:56;97475.16;;;-3.31;100.00
64080;BME280;51042;49.696;10.808;2022-12-10T08:39:22;97483.66;;;-3.25;100.00
64080;BME280;51042;49.696;10.808;2022-12-10T08:41:47;97482.69;;;-3.10;100.00
64080;BME280;51042;49.696;10.808;2022-12-10T08:44:12;97473.91;;;-3.04;100.00
64080;BME280;51042;49.696;10.808;2022-12-10T08:46:38;97482.53;;;-2.88;100.00
64080;BME280;51042;49.696;10.808;2022-12-10T08:49:04;97481.50;;;-2.76;100.00
64080;BME280;51042;49.696;10.808;2022-12-10T08:51:30;97482.66;;;-2.73;100.00
64080;BME280;51042;49.696;10.808;2022-12-10T08:53:55;97486.53;;;-2.67;100.00
64080;BME280;51042;49.696;10.808;2022-12-10T08:56:20;97488.84;;;-2.66;100.00
64080;BME280;51042;49.696;10.808;2022-12-10T08:58:46;97483.06;;;-2.71;100.00
64080;BME280;51042;49.696;10.808;2022-12-10T09:01:12;97483.84;;;-2.71;100.00
64080;BME280;51042;49.696;10.808;2022-12-10T09:03:38;97481.16;;;-2.71;100.00
64080;BME280;51042;49.696;10.808;2022-12-10T09:06:04;97484.72;;;-2.56;100.00
64080;BME280;51042;49.696;10.808;2022-12-10T09:08:29;97474.84;;;-2.45;100.00
64080;BME280;51042;49.696;10.808;2022-12-10T09:10:54;97480.69;;;-2.32;100.00
64080;BME280;51042;49.696;10.808;2022-12-10T09:13:20;97482.34;;;-2.21;100.00
64080;BME280;51042;49.696;10.808;2022-12-10T09:15:53;97481.63;;;-2.11;100.00
64080;BME280;51042;49.696;10.808;2022-12-10T09:18:19;97476.69;;;-2.01;100.00
64080;BME280;51042;49.696;10.808;2022-12-10T09:20:44;97475.59;;;-1.97;100.00
64080;BME280;51042;49.696;10.808;2022-12-10T09:23:09;97477.16;;;-1.89;100.00
64080;BME280;51042;49.696;10.808;2022-12-10T09:25:35;97471.41;;;-1.87;100.00
64080;BME280;51042;49.696;10.808;2022-12-10T09:28:00;97467.66;;;-1.65;100.00
64080;BME280;51042;49.696;10.808;2022-12-10T09:30:25;97476.09;;;-1.67;100.00
64080;BME280;51042;49.696;10.808;2022-12-10T09:32:50;97473.00;;;-1.72;100.00
64080;BME280;51042;49.696;10.808;2022-12-10T09:35:16;97464.06;;;-1.90;100.00
64080;BME280;51042;49.696;10.808;2022-12-10T09:37:41;97472.09;;;-2.01;100.00
64080;BME280;51042;49.696;10.808;2022-12-10T09:40:06;97475.13;;;-2.06;100.00
64080;BME280;51042;49.696;10.808;2022-12-10T09:42:38;97473.97;;;-2.05;100.00
64080;BME280;51042;49.696;10.808;2022-12-10T09:50:35;97465.25;;;-1.91;100.00
64080;BME280;51042;49.696;10.808;2022-12-10T09:53:07;97456.81;;;-1.86;100.00
64080;BME280;51042;49.696;10.808;2022-12-10T09:55:38;97461.84;;;-1.78;100.00
64080;BME280;51042;49.696;10.808;2022-12-10T09:58:05;97462.66;;;-1.67;100.00
64080;BME280;51042;49.696;10.808;2022-12-10T10:02:58;97454.25;;;-1.58;100.00
64080;BME280;51042;49.696;10.808;2022-12-10T10:05:25;97463.88;;;-1.57;100.00
64080;BME280;51042;49.696;10.808;2022-12-10T10:07:59;97462.00;;;-1.46;100.00
64080;BME280;51042;49.696;10.808;2022-12-10T10:10:26;97459.38;;;-1.32;100.00
64080;BME280;51042;49.696;10.808;2022-12-10T10:12:52;97463.19;;;-1.29;100.00
64080;BME280;51042;49.696;10.808;2022-12-10T10:15:22;97452.88;;;-1.20;100.00
64080;BME280;51042;49.696;10.808;2022-12-10T10:17:48;97463.66;;;-1.06;100.00
64080;BME280;51042;49.696;10.808;2022-12-10T10:20:15;97457.53;;;-0.96;100.00
64080;BME280;51042;49.696;10.808;2022-12-10T10:22:41;97459.09;;;-0.84;100.00
64080;BME280;51042;49.696;10.808;2022-12-10T10:25:12;97461.03;;;-0.74;100.00
64080;BME280;51042;49.696;10.808;2022-12-10T10:27:38;97457.97;;;-0.62;100.00
64080;BME280;51042;49.696;10.808;2022-12-10T10:30:04;97457.56;;;-0.57;100.00
64080;BME280;51042;49.696;10.808;2022-12-10T10:35:00;97476.81;;;-0.55;100.00
64080;BME280;51042;49.696;10.808;2022-12-10T10:37:27;97474.53;;;-0.49;100.00
64080;BME280;51042;49.696;10.808;2022-12-10T10:39:53;97479.53;;;-0.37;100.00
64080;BME280;51042;49.696;10.808;2022-12-10T10:42:35;97491.44;;;-0.27;100.00
64080;BME280;51042;49.696;10.808;2022-12-10T10:45:06;97491.84;;;-0.32;100.00
64080;BME280;51042;49.696;10.808;2022-12-10T10:47:46;97478.38;;;-0.25;100.00
64080;BME280;51042;49.696;10.808;2022-12-10T10:50:12;97476.44;;;-0.14;100.00
64080;BME280;51042;49.696;10.808;2022-12-10T10:52:47;97472.19;;;-0.12;100.00
64080;BME280;51042;49.696;10.808;2022-12-10T10:55:30;97484.91;;;-0.16;100.00
64080;BME280;51042;49.696;10.808;2022-12-10T10:57:55;97487.22;;;-0.21;100.00
64080;BME280;51042;49.696;10.808;2022-12-10T11:00:21;97474.13;;;-0.26;100.00
64080;BME280;51042;49.696;10.808;2022-12-10T11:02:49;97475.66;;;-0.29;100.00
64080;BME280;51042;49.696;10.808;2022-12-10T11:05:16;97472.56;;;-0.24;100.00
64080;BME280;51042;49.696;10.808;2022-12-10T11:07:42;97466.81;;;-0.15;100.00
64080;BME280;51042;49.696;10.808;2022-12-10T11:10:18;97465.25;;;-0.02;100.00
64080;BME280;51042;49.696;10.808;2022-12-10T11:12:45;97465.25;;;0.05;100.00
64080;BME280;51042;49.696;10.808;2022-12-10T11:17:53;97460.97;;;0.22;100.00
64080;BME280;51042;49.696;10.808;2022-12-10T11:20:29;97465.59;;;0.18;100.00
64080;BME280;51042;49.696;10.808;2022-12-10T11:22:58;97467.16;;;0.01;100.00
64080;BME280;51042;49.696;10.808;2022-12-10T11:25:28;97475.66;;;-0.15;100.00
64080;BME280;51042;49.696;10.808;2022-12-10T11:28:10;97471.44;;;-0.26;100.00
64080;BME280;51042;49.696;10.808;2022-12-10T11:30:40;97468.34;;;-0.21;100.00
64080;BME280;51042;49.696;10.808;2022-12-10T11:33:17;97465.66;;;-0.25;100.00
64080;BME280;51042;49.696;10.808;2022-12-10T11:38:30;97463.31;;;0.02;100.00
64080;BME280;51042;49.696;10.808;2022-12-10T11:48:54;97472.50;;;0.33;100.00
64080;BME280;51042;49.696;10.808;2022-12-10T11:54:05;97477.50;;;0.42;100.00
64080;BME280;51042;49.696;10.808;2022-12-10T11:56:38;97475.56;;;0.31;100.00
64080;BME280;51042;49.696;10.808;2022-12-10T11:59:27;97464.03;;;0.27;100.00
64080;BME280;51042;49.696;10.808;2022-12-10T12:04:41;97469.47;;;0.17;100.00
64080;BME280;51042;49.696;10.808;2022-12-10T12:14:55;97484.13;;;0.05;100.00
64080;BME280;51042;49.696;10.808;2022-12-10T12:19:49;97480.63;;;0.15;100.00
64080;BME280;51042;49.696;10.808;2022-12-10T12:22:24;97482.53;;;0.18;100.00
64080;BME280;51042;49.696;10.808;2022-12-10T12:24:51;97476.75;;;0.20;100.00
64080;BME280;51042;49.696;10.808;2022-12-10T12:27:24;97469.41;;;0.34;100.00
64080;BME280;51042;49.696;10.808;2022-12-10T12:30:04;97466.25;;;0.50;100.00
64080;BME280;51042;49.696;10.808;2022-12-10T12:35:01;97475.50;;;0.49;100.00
64080;BME280;51042;49.696;10.808;2022-12-10T12:37:38;97471.63;;;0.57;100.00
64080;BME280;51042;49.696;10.808;2022-12-10T12:42:42;97480.09;;;0.70;100.00
64080;BME280;51042;49.696;10.808;2022-12-10T12:47:43;97479.72;;;0.64;100.00
64080;BME280;51042;49.696;10.808;2022-12-10T12:50:22;97478.91;;;0.74;100.00
64080;BME280;51042;49.696;10.808;2022-12-10T12:52:51;97479.28;;;0.73;100.00
64080;BME280;51042;49.696;10.808;2022-12-10T12:57:53;97486.31;;;0.53;100.00
64080;BME280;51042;49.696;10.808;2022-12-10T13:00:20;97486.28;;;0.56;100.00
64080;BME280;51042;49.696;10.808;2022-12-10T13:05:29;97472.75;;;0.70;100.00
64080;BME280;51042;49.696;10.808;2022-12-10T13:10:46;97469.72;;;0.51;100.00
64080;BME280;51042;49.696;10.808;2022-12-10T13:13:25;97477.84;;;0.44;100.00
64080;BME280;51042;49.696;10.808;2022-12-10T13:15:53;97478.22;;;0.49;100.00
64080;BME280;51042;49.696;10.808;2022-12-10T13:18:20;97475.53;;;0.46;100.00
64080;BME280;51042;49.696;10.808;2022-12-10T13:21:15;97476.31;;;0.39;100.00
64080;BME280;51042;49.696;10.808;2022-12-10T13:23:47;97480.16;;;0.45;100.00
64080;BME280;51042;49.696;10.808;2022-12-10T13:26:23;97484.00;;;0.51;100.00
64080;BME280;51042;49.696;10.808;2022-12-10T13:28:49;97480.50;;;0.54;100.00
64080;BME280;51042;49.696;10.808;2022-12-10T13:36:26;97494.03;;;0.51;100.00
64080;BME280;51042;49.696;10.808;2022-12-10T13:38:57;97497.88;;;0.53;100.00
64080;BME280;51042;49.696;10.808;2022-12-10T13:41:22;97506.72;;;0.54;100.00
64080;BME280;51042;49.696;10.808;2022-12-10T13:44:31;97516.78;;;0.46;100.00
64080;BME280;51042;49.696;10.808;2022-12-10T13:47:03;97520.25;;;0.47;100.00
64080;BME280;51042;49.696;10.808;2022-12-10T13:49:29;97513.72;;;0.48;100.00
64080;BME280;51042;49.696;10.808;2022-12-10T14:02:18;97542.97;;;0.49;100.00
64080;BME280;51042;49.696;10.808;2022-12-10T14:04:54;97528.72;;;0.52;100.00
64080;BME280;51042;49.696;10.808;2022-12-10T14:07:28;97537.97;;;0.55;100.00
64080;BME280;51042;49.696;10.808;2022-12-10T14:09:56;97537.97;;;0.55;100.00
64080;BME280;51042;49.696;10.808;2022-12-10T14:12:27;97534.88;;;0.49;100.00
64080;BME280;51042;49.696;10.808;2022-12-10T14:15:00;97541.06;;;0.46;100.00
64080;BME280;51042;49.696;10.808;2022-12-10T14:17:31;97549.19;;;0.39;100.00
64080;BME280;51042;49.696;10.808;2022-12-10T14:19:56;97556.91;;;0.33;100.00